Time;durP1;ratioP1;P1;durP2;ratioP2;P2;SDS_P1;SDS_P2;PMS_P1;PMS_P2;Temp;Humidity;BMP_temperature;BMP_pressure;BME280_temperature;BME280_humidity;BME280_pressure;Samples;Min_cycle;Max_cycle;Signal;HPM_P1;HPM_P2
2021/09/15 00:01:12;;;;;;;13.82;8.57;;;;;;;15.13;97.01;100830.94;5008472;28;20058;-63
2021/09/15 00:03:40;;;;;;;11.23;8.73;;;;;;;15.18;96.56;100827.00;5006625;28;20060;-62
2021/09/15 00:06:07;;;;;;;15.15;9.82;;;;;;;15.31;95.68;100829.56;4992213;28;20064;-65
2021/09/15 00:08:34;;;;;;;12.63;8.50;;;;;;;15.18;96.52;100821.69;5005218;28;20141;-63
2021/09/15 00:11:01;;;;;;;12.88;8.32;;;;;;;15.14;96.94;100827.34;5002087;28;20076;-64
2021/09/15 00:13:29;;;;;;;15.90;8.85;;;;;;;15.18;96.90;100812.91;5010592;28;20136;-63
2021/09/15 00:15:56;;;;;;;11.50;8.00;;;;;;;15.14;96.97;100820.22;5006480;28;20057;-65
2021/09/15 00:18:24;;;;;;;11.65;8.02;;;;;;;15.17;96.61;100811.19;4977281;28;20061;-63
2021/09/15 00:20:51;;;;;;;14.13;8.82;;;;;;;15.06;97.37;100813.81;5003930;28;20048;-63
2021/09/15 00:23:18;;;;;;;10.27;9.18;;;;;;;15.06;97.47;100822.59;5007638;28;20042;-64
2021/09/15 00:25:45;;;;;;;13.48;9.40;;;;;;;15.00;98.49;100811.63;5007681;28;20084;-61
2021/09/15 00:28:12;;;;;;;10.70;8.32;;;;;;;15.05;97.99;100807.66;4998822;28;20128;-64
2021/09/15 00:30:40;;;;;;;15.10;8.40;;;;;;;15.08;97.81;100812.72;5015910;28;20537;-63
2021/09/15 00:33:07;;;;;;;20.15;9.40;;;;;;;15.14;97.19;100800.81;4982962;28;20051;-64
2021/09/15 00:35:34;;;;;;;13.27;10.07;;;;;;;15.09;97.56;100808.28;5010780;28;20145;-62
2021/09/15 00:38:03;;;;;;;14.32;8.65;;;;;;;15.07;98.07;100799.56;5009629;28;20153;-62
2021/09/15 00:40:30;;;;;;;13.32;9.02;;;;;;;15.01;98.17;100803.53;4995051;28;20069;-63
2021/09/15 00:42:57;;;;;;;12.60;9.45;;;;;;;14.98;98.54;100798.47;4999859;28;20095;-63
2021/09/15 00:45:24;;;;;;;13.38;9.05;;;;;;;14.93;98.84;100800.59;5007201;28;20058;-62
2021/09/15 00:47:51;;;;;;;14.52;9.93;;;;;;;14.87;99.34;100799.28;5002854;28;20129;-61
2021/09/15 00:50:19;;;;;;;12.10;9.68;;;;;;;14.87;99.33;100796.63;5005616;28;20128;-63
2021/09/15 00:52:46;;;;;;;13.98;9.80;;;;;;;14.84;99.92;100798.66;4999540;28;20089;-63
2021/09/15 00:55:13;;;;;;;14.93;10.52;;;;;;;14.86;99.60;100799.34;4994674;28;20088;-64
2021/09/15 00:57:41;;;;;;;15.00;9.98;;;;;;;14.77;100.00;100802.69;4987847;28;20129;-63
2021/09/15 01:00:08;;;;;;;14.52;9.60;;;;;;;14.79;100.00;100800.78;5010186;28;20042;-63
2021/09/15 01:02:36;;;;;;;17.08;10.55;;;;;;;14.83;100.00;100807.56;5010660;28;20136;-64
2021/09/15 01:05:04;;;;;;;13.65;10.40;;;;;;;14.77;100.00;100800.03;5006542;28;20582;-63
2021/09/15 01:07:33;;;;;;;13.45;9.82;;;;;;;14.79;100.00;100800.78;4982774;28;20146;-64
2021/09/15 01:10:01;;;;;;;13.73;10.35;;;;;;;14.80;100.00;100795.38;5008741;28;20092;-63
2021/09/15 01:12:28;;;;;;;12.75;10.18;;;;;;;14.82;100.00;100796.13;5017443;28;20050;-63
2021/09/15 01:14:56;;;;;;;17.23;10.55;;;;;;;14.82;100.00;100793.47;4988903;28;20060;-63
2021/09/15 01:17:23;;;;;;;11.75;10.55;;;;;;;14.77;100.00;100792.09;4993688;28;20053;-63
2021/09/15 01:19:50;;;;;;;14.90;11.05;;;;;;;14.84;100.00;100791.53;4990325;28;20433;-61
2021/09/15 01:22:17;;;;;;;18.38;11.07;;;;;;;14.79;100.00;100782.25;5006669;28;20550;-61
2021/09/15 01:24:47;;;;;;;18.63;11.10;;;;;;;14.81;100.00;100788.25;4983705;28;20116;-64
2021/09/15 01:27:14;;;;;;;17.42;10.75;;;;;;;14.76;100.00;100782.47;5007140;28;20054;-63
2021/09/15 01:29:42;;;;;;;12.85;10.20;;;;;;;14.80;100.00;100787.41;4995147;28;20139;-63
2021/09/15 01:32:11;;;;;;;21.67;11.40;;;;;;;14.86;100.00;100786.09;5009925;28;20077;-63
2021/09/15 01:34:51;;;;;;;18.90;11.40;;;;;;;14.80;100.00;100790.06;4996045;28;20045;-64
2021/09/15 01:37:19;;;;;;;16.20;11.63;;;;;;;14.88;100.00;100782.41;5005677;28;20056;-63
2021/09/15 01:39:46;;;;;;;15.60;11.52;;;;;;;14.91;100.00;100782.19;5010702;28;20102;-63
2021/09/15 01:42:13;;;;;;;11.88;10.20;;;;;;;14.99;99.67;100770.13;5013582;28;20045;-62
2021/09/15 01:44:46;;;;;;;24.95;11.13;;;;;;;14.97;99.65;100769.41;4970913;28;20054;-64
2021/09/15 01:47:14;;;;;;;13.65;11.15;;;;;;;14.92;100.00;100769.75;4979271;28;20052;-62
2021/09/15 01:49:43;;;;;;;14.70;10.90;;;;;;;14.82;100.00;100761.66;4989039;28;20049;-63
2021/09/15 01:52:11;;;;;;;18.55;10.77;;;;;;;14.76;100.00;100769.22;5010414;28;20048;-64
2021/09/15 01:54:38;;;;;;;16.30;11.43;;;;;;;14.73;100.00;100765.00;5006531;28;20741;-63
2021/09/15 01:57:06;;;;;;;23.33;12.15;;;;;;;14.70;100.00;100759.91;5011514;28;20122;-64
2021/09/15 01:59:33;;;;;;;17.52;11.70;;;;;;;14.65;100.00;100762.06;5002796;28;20140;-64
2021/09/15 02:02:01;;;;;;;12.88;11.45;;;;;;;14.59;100.00;100760.72;4998515;28;20121;-62
2021/09/15 02:04:28;;;;;;;18.60;12.48;;;;;;;14.57;100.00;100751.19;5001006;28;20057;-63
2021/09/15 02:06:55;;;;;;;17.77;12.73;;;;;;;14.52;100.00;100743.56;5001881;28;20153;-62
2021/09/15 02:09:23;;;;;;;15.20;11.88;;;;;;;14.58;100.00;100744.91;4982545;28;20184;-63
2021/09/15 02:11:50;;;;;;;15.73;11.68;;;;;;;14.53;100.00;100739.94;5005706;28;20125;-63
2021/09/15 02:14:17;;;;;;;19.02;12.38;;;;;;;14.45;100.00;100739.63;4995646;28;20085;-63
2021/09/15 02:16:44;;;;;;;16.85;12.88;;;;;;;14.50;100.00;100737.56;4995252;28;20077;-62
2021/09/15 02:19:12;;;;;;;18.30;12.57;;;;;;;14.52;100.00;100743.56;4994585;28;20399;-64
2021/09/15 02:21:39;;;;;;;17.83;12.77;;;;;;;14.56;100.00;100745.03;5003777;28;20572;-62
2021/09/15 02:24:07;;;;;;;15.63;12.95;;;;;;;14.61;100.00;100737.59;4999209;28;20657;-64
2021/09/15 02:26:34;;;;;;;15.52;13.25;;;;;;;14.59;100.00;100723.63;4992287;28;20164;-62
2021/09/15 02:29:03;;;;;;;14.52;12.80;;;;;;;14.49;100.00;100727.03;5014139;28;20073;-64
2021/09/15 02:31:31;;;;;;;18.02;13.60;;;;;;;14.59;100.00;100728.91;4977983;28;20049;-62
2021/09/15 02:33:58;;;;;;;15.73;13.07;;;;;;;14.62;100.00;100733.97;5000675;28;20874;-61
2021/09/15 02:36:26;;;;;;;14.68;13.10;;;;;;;14.69;100.00;100732.56;4989929;28;20050;-63
2021/09/15 02:38:53;;;;;;;18.25;13.30;;;;;;;14.60;100.00;100732.41;4994569;28;20071;-64
2021/09/15 02:41:20;;;;;;;19.75;13.35;;;;;;;14.72;100.00;100731.47;5005001;28;20073;-62
2021/09/15 02:43:47;;;;;;;20.63;13.88;;;;;;;14.75;100.00;100720.66;5008689;28;20149;-63
2021/09/15 02:46:14;;;;;;;17.58;12.82;;;;;;;14.70;100.00;100730.75;4984501;28;20755;-64
2021/09/15 02:48:42;;;;;;;15.55;13.95;;;;;;;14.82;100.00;100729.84;4994870;28;20054;-63
2021/09/15 02:51:09;;;;;;;16.23;13.57;;;;;;;14.85;100.00;100726.13;5000008;28;20046;-63
2021/09/15 02:53:36;;;;;;;18.50;13.40;;;;;;;14.82;100.00;100721.91;4994826;28;20149;-63
2021/09/15 02:56:03;;;;;;;24.35;12.88;;;;;;;14.81;100.00;100714.88;5003012;23;20133;-60
2021/09/15 02:58:30;;;;;;;20.48;14.98;;;;;;;14.81;100.00;100719.34;5021420;28;20133;-62
2021/09/15 03:00:58;;;;;;;17.88;14.05;;;;;;;14.80;100.00;100712.38;5026589;28;20080;-62
2021/09/15 03:03:25;;;;;;;18.30;13.82;;;;;;;14.73;100.00;100717.28;4989538;28;20045;-61
2021/09/15 03:05:52;;;;;;;15.25;13.40;;;;;;;14.65;100.00;100712.56;5021145;28;20076;-62
2021/09/15 03:08:19;;;;;;;15.20;13.50;;;;;;;14.75;100.00;100718.00;5025257;28;20045;-63
2021/09/15 03:10:47;;;;;;;16.98;14.43;;;;;;;14.65;100.00;100712.56;5019042;28;20439;-62
2021/09/15 03:13:14;;;;;;;17.40;13.98;;;;;;;14.63;100.00;100708.31;5023264;28;20069;-62
2021/09/15 03:15:41;;;;;;;18.45;14.52;;;;;;;14.67;100.00;100702.69;4987118;28;20176;-60
2021/09/15 03:18:08;;;;;;;20.80;13.57;;;;;;;14.71;100.00;100699.81;5020475;28;20125;-63
2021/09/15 03:20:35;;;;;;;19.35;14.25;;;;;;;14.72;100.00;100694.38;5026583;28;20128;-61
2021/09/15 03:23:03;;;;;;;22.52;14.43;;;;;;;14.67;100.00;100694.72;5020982;28;20107;-59
2021/09/15 03:25:30;;;;;;;18.27;14.88;;;;;;;14.73;100.00;100696.09;5000378;28;20228;-62
2021/09/15 03:27:58;;;;;;;16.35;13.35;;;;;;;14.67;100.00;100693.88;4988095;28;20406;-61
2021/09/15 03:30:25;;;;;;;21.17;13.70;;;;;;;14.75;100.00;100695.97;5005981;28;20237;-61
2021/09/15 03:32:52;;;;;;;21.75;14.70;;;;;;;14.78;100.00;100685.16;5010739;28;20481;-60
2021/09/15 03:35:19;;;;;;;19.95;14.98;;;;;;;14.80;100.00;100685.88;5006282;28;20135;-62
2021/09/15 03:37:47;;;;;;;27.55;14.20;;;;;;;14.86;100.00;100685.38;5020090;28;20064;-60
2021/09/15 03:40:14;;;;;;;22.65;14.60;;;;;;;14.83;100.00;100681.19;5021944;28;20115;-62
2021/09/15 03:42:41;;;;;;;19.60;14.57;;;;;;;14.77;100.00;100675.47;5026018;28;20125;-61
2021/09/15 03:45:09;;;;;;;16.45;13.68;;;;;;;14.80;100.00;100668.16;5024093;28;20140;-61
2021/09/15 03:47:36;;;;;;;21.13;14.75;;;;;;;14.74;100.00;100671.28;5024001;28;20069;-61
2021/09/15 03:50:04;;;;;;;26.95;15.00;;;;;;;14.73;100.00;100674.06;4982881;28;20054;-60
2021/09/15 03:52:31;;;;;;;21.60;15.07;;;;;;;14.78;100.00;100674.56;5022055;28;20107;-59
2021/09/15 03:54:58;;;;;;;21.67;16.08;;;;;;;14.75;100.00;100669.47;5004527;28;20525;-61
2021/09/15 03:57:26;;;;;;;17.90;14.15;;;;;;;14.69;100.00;100666.31;5018117;28;20152;-62
2021/09/15 03:59:53;;;;;;;19.38;15.55;;;;;;;14.68;100.00;100669.09;4985493;28;20046;-62
2021/09/15 04:02:21;;;;;;;21.52;14.43;;;;;;;14.67;100.00;100670.03;5011425;28;20516;-62
2021/09/15 04:04:48;;;;;;;23.35;15.52;;;;;;;14.71;100.00;100663.56;4999818;28;20460;-62
2021/09/15 04:07:16;;;;;;;16.30;14.60;;;;;;;14.69;100.00;100661.03;5028338;28;20144;-61
2021/09/15 04:09:44;;;;;;;25.73;15.73;;;;;;;14.73;100.00;100663.44;5025095;28;20069;-62
2021/09/15 04:12:11;;;;;;;19.33;14.05;;;;;;;14.73;100.00;100660.81;5025604;28;20119;-61
2021/09/15 04:14:39;;;;;;;17.52;14.20;;;;;;;14.78;100.00;100654.19;5027696;28;20065;-62
2021/09/15 04:17:06;;;;;;;18.10;14.63;;;;;;;14.73;100.00;100653.69;5031479;28;20121;-61
2021/09/15 04:19:33;;;;;;;20.98;15.00;;;;;;;14.75;100.00;100650.91;5010666;28;20060;-61
2021/09/15 04:22:00;;;;;;;20.55;14.80;;;;;;;14.65;100.00;100656.91;5032335;28;20129;-59
2021/09/15 04:32:42;;;;;;;25.00;15.85;;;;;;;14.66;100.00;100653.31;5022294;28;20145;-62
2021/09/15 04:35:09;;;;;;;26.98;16.75;;;;;;;14.67;100.00;100660.28;5015774;28;20446;-62
2021/09/15 04:37:36;;;;;;;20.10;14.73;;;;;;;14.59;100.00;100664.47;5022737;28;20088;-62
2021/09/15 04:40:04;;;;;;;19.65;15.48;;;;;;;14.64;100.00;100649.94;5020585;28;20136;-61
2021/09/15 04:42:31;;;;;;;20.55;14.93;;;;;;;14.68;100.00;100650.56;5025214;28;20132;-60
2021/09/15 04:45:04;;;;;;;22.73;16.23;;;;;;;14.75;100.00;100646.47;5021663;28;20495;-62
2021/09/15 04:47:31;;;;;;;23.50;16.08;;;;;;;14.72;100.00;100637.91;5011189;28;20853;-61
2021/09/15 04:49:59;;;;;;;17.95;14.90;;;;;;;14.69;100.00;100642.47;5007191;28;20060;-61
2021/09/15 04:52:26;;;;;;;19.08;14.98;;;;;;;14.77;100.00;100638.38;5006774;28;20148;-63
2021/09/15 04:54:53;;;;;;;17.15;14.88;;;;;;;14.80;100.00;100638.16;5002225;28;20727;-60
2021/09/15 04:57:21;;;;;;;19.88;14.65;;;;;;;14.76;100.00;100634.06;5007125;28;20082;-61
2021/09/15 04:59:48;;;;;;;19.85;14.95;;;;;;;14.75;100.00;100646.47;5024398;28;20128;-60
2021/09/15 05:02:15;;;;;;;18.02;15.38;;;;;;;14.73;100.00;100652.84;5026071;28;20144;-61
2021/09/15 05:04:42;;;;;;;18.67;14.90;;;;;;;14.79;100.00;100637.31;5023617;28;20193;-62
2021/09/15 05:07:13;;;;;;;19.23;15.27;;;;;;;14.82;100.00;100633.59;5031481;28;20104;-62
2021/09/15 05:09:40;;;;;;;22.35;16.05;;;;;;;14.81;100.00;100634.53;5025013;28;20137;-62
2021/09/15 05:12:07;;;;;;;21.30;15.57;;;;;;;14.85;100.00;100631.53;5026793;28;20053;-60
2021/09/15 05:14:34;;;;;;;23.15;16.35;;;;;;;14.83;100.00;100636.13;5019953;28;20111;-59
2021/09/15 05:17:02;;;;;;;19.30;14.38;;;;;;;14.83;100.00;100632.63;5025233;28;20063;-62
2021/09/15 05:19:29;;;;;;;20.80;14.50;;;;;;;14.88;100.00;100633.97;5022578;28;20054;-59
2021/09/15 05:22:00;;;;;;;17.48;15.07;;;;;;;14.95;100.00;100629.06;5026832;28;20049;-62
2021/09/15 05:24:27;;;;;;;19.70;16.80;;;;;;;14.91;100.00;100624.94;5020057;28;20085;-62
2021/09/15 05:26:54;;;;;;;19.15;15.63;;;;;;;14.98;100.00;100628.78;5023534;28;20099;-63
2021/09/15 05:29:22;;;;;;;22.73;16.60;;;;;;;14.98;100.00;100626.13;5004596;28;20184;-62
2021/09/15 05:31:49;;;;;;;21.55;16.00;;;;;;;14.92;100.00;100631.94;5015467;28;20476;-68
2021/09/15 05:34:16;;;;;;;18.77;15.45;;;;;;;15.02;100.00;100630.25;5017150;28;20053;-62
2021/09/15 05:36:43;;;;;;;21.00;14.80;;;;;;;15.15;100.00;100628.34;5016184;28;20133;-61
2021/09/15 05:39:10;;;;;;;18.70;15.40;;;;;;;15.26;100.00;100626.63;5022513;28;20053;-62
2021/09/15 05:41:37;;;;;;;21.50;16.13;;;;;;;15.27;100.00;100629.19;5028225;28;20057;-62
2021/09/15 05:44:05;;;;;;;18.98;14.50;;;;;;;15.35;100.00;100628.56;5033345;28;20046;-63
2021/09/15 05:46:32;;;;;;;22.38;15.70;;;;;;;15.39;100.00;100625.56;5021724;28;20087;-62
2021/09/15 05:48:59;;;;;;;20.42;14.90;;;;;;;15.41;99.75;100620.97;5026513;28;20102;-62
2021/09/15 05:51:26;;;;;;;22.52;14.80;;;;;;;15.41;99.73;100617.50;4995728;28;20136;-63
2021/09/15 05:53:54;;;;;;;21.70;15.00;;;;;;;15.47;99.47;100624.13;4996171;28;20060;-60
2021/09/15 05:56:22;;;;;;;19.90;14.88;;;;;;;15.53;99.29;100627.09;5015118;28;20100;-62
2021/09/15 05:58:49;;;;;;;21.83;14.48;;;;;;;15.59;98.55;100631.09;5023476;28;20124;-62
2021/09/15 06:01:16;;;;;;;17.83;15.05;;;;;;;15.82;97.39;100635.44;4990487;28;20618;-62
2021/09/15 06:03:43;;;;;;;20.30;14.38;;;;;;;15.99;96.21;100639.38;4998990;28;20130;-62
2021/09/15 06:06:11;;;;;;;20.70;13.32;;;;;;;16.15;94.92;100631.00;5025498;28;20103;-62
2021/09/15 06:08:38;;;;;;;15.10;13.50;;;;;;;16.25;94.12;100626.59;5025729;28;21100;-62
2021/09/15 06:11:05;;;;;;;18.48;13.68;;;;;;;16.15;93.76;100621.22;5022132;28;20101;-61
2021/09/15 06:13:32;;;;;;;19.27;14.27;;;;;;;16.12;93.60;100618.84;5012245;28;20076;-62
2021/09/15 06:16:00;;;;;;;18.00;14.43;;;;;;;16.17;93.89;100621.09;5007139;28;20129;-62
2021/09/15 06:18:27;;;;;;;16.42;13.48;;;;;;;16.14;93.83;100613.38;4980210;28;20060;-64
2021/09/15 06:20:55;;;;;;;17.38;13.85;;;;;;;16.03;94.53;100621.38;4997923;28;20088;-62
2021/09/15 06:23:22;;;;;;;19.05;14.02;;;;;;;16.13;93.75;100614.34;5011531;28;20460;-62
2021/09/15 06:25:49;;;;;;;17.65;13.10;;;;;;;16.40;92.97;100616.53;4996190;28;20041;-62
2021/09/15 06:28:16;;;;;;;21.52;13.30;;;;;;;16.75;90.80;100610.09;5008953;28;20129;-62
2021/09/15 06:30:50;;;;;;;15.50;13.00;;;;;;;17.36;87.45;100615.44;4972273;28;20567;-62
2021/09/15 06:33:18;;;;;;;13.90;12.27;;;;;;;17.84;83.31;100618.28;5020277;28;20037;-62
2021/09/15 06:35:46;;;;;;;14.38;12.60;;;;;;;17.98;82.60;100605.53;5028314;28;20073;-63
2021/09/15 06:38:13;;;;;;;14.00;11.88;;;;;;;18.60;79.29;100609.63;5006015;28;20053;-60
2021/09/15 06:40:41;;;;;;;19.65;10.88;;;;;;;19.00;77.32;100598.72;5003166;28;20046;-61
2021/09/15 06:43:08;;;;;;;14.50;11.75;;;;;;;18.69;77.52;100611.47;5024475;28;20431;-62
2021/09/15 06:45:35;;;;;;;19.38;11.98;;;;;;;18.23;79.62;100610.31;5010388;28;20059;-61
2021/09/15 06:48:03;;;;;;;14.48;11.00;;;;;;;18.28;79.92;100612.56;4992338;28;20149;-63
2021/09/15 06:50:30;;;;;;;15.00;11.23;;;;;;;18.30;81.01;100606.13;5003707;28;20061;-63
2021/09/15 06:52:57;;;;;;;17.85;12.73;;;;;;;18.61;78.31;100608.63;5009703;28;20060;-63
2021/09/15 06:55:24;;;;;;;14.40;12.32;;;;;;;18.23;79.89;100605.81;5010205;28;20161;-63
2021/09/15 06:57:52;;;;;;;13.48;12.05;;;;;;;17.87;82.23;100612.66;5008290;28;20151;-61
2021/09/15 07:00:19;;;;;;;16.20;12.18;;;;;;;17.94;82.26;100607.63;5017236;28;20068;-61
2021/09/15 07:02:47;;;;;;;14.32;12.75;;;;;;;18.09;81.47;100606.25;5031268;28;20038;-63
2021/09/15 07:05:14;;;;;;;15.25;11.98;;;;;;;18.14;82.15;100596.00;5000652;28;20037;-61
2021/09/15 07:07:42;;;;;;;15.93;10.82;;;;;;;19.96;74.32;100597.41;5024999;28;20050;-62
2021/09/15 07:10:10;;;;;;;14.80;11.05;;;;;;;21.77;65.96;100596.78;5022040;28;20042;-62
2021/09/15 07:12:38;;;;;;;18.65;10.57;;;;;;;23.07;60.66;100591.44;5027768;28;20049;-63
2021/09/15 07:15:07;;;;;;;13.95;10.35;;;;;;;23.32;58.36;100594.88;5024807;28;20045;-61
2021/09/15 07:17:34;;;;;;;21.58;15.93;;;;;;;23.90;56.56;100593.59;5027877;28;20081;-61
2021/09/15 07:20:04;;;;;;;21.13;15.13;;;;;;;23.96;55.51;100590.22;5022708;28;20099;-59
2021/09/15 07:22:31;;;;;;;14.68;9.85;;;;;;;23.50;56.81;100590.13;5025632;28;20067;-60
2021/09/15 07:24:58;;;;;;;13.85;11.82;;;;;;;24.19;54.97;100592.06;5018719;28;20133;-62
2021/09/15 07:27:25;;;;;;;13.15;9.02;;;;;;;24.88;52.64;100587.44;5028712;28;20054;-61
2021/09/15 07:29:53;;;;;;;12.85;9.13;;;;;;;26.66;48.05;100589.72;5030413;28;20052;-62
2021/09/15 07:32:26;;;;;;;9.73;8.73;;;;;;;27.25;45.79;100583.88;5026360;28;20049;-62
2021/09/15 07:34:54;;;;;;;12.50;8.80;;;;;;;27.54;45.27;100585.47;5031047;28;20044;-59
2021/09/15 07:37:21;;;;;;;21.20;9.10;;;;;;;28.35;43.24;100593.59;4997427;28;20041;-61
2021/09/15 07:39:49;;;;;;;11.88;8.75;;;;;;;28.51;42.27;100589.66;5001712;28;20053;-62
2021/09/15 07:42:16;;;;;;;15.25;8.48;;;;;;;29.13;41.33;100590.19;5029652;28;20106;-60
2021/09/15 07:44:43;;;;;;;13.02;8.77;;;;;;;29.73;40.63;100588.97;5029569;28;20109;-62
2021/09/15 07:47:16;;;;;;;10.32;7.85;;;;;;;30.68;37.56;100590.78;5031481;28;20063;-61
2021/09/15 07:49:43;;;;;;;13.45;9.07;;;;;;;29.47;39.34;100592.59;5033209;28;20130;-61
2021/09/15 07:52:11;;;;;;;8.93;8.02;;;;;;;30.06;37.96;100592.50;5043958;28;20132;-60
2021/09/15 07:54:38;;;;;;;13.60;8.48;;;;;;;29.82;39.05;100596.84;5005577;28;20038;-59
2021/09/15 07:57:06;;;;;;;12.10;8.30;;;;;;;29.75;39.35;100599.59;5034092;28;20153;-59
2021/09/15 07:59:33;;;;;;;15.15;8.07;;;;;;;29.34;39.93;100602.66;5010692;28;20099;-62
2021/09/15 08:02:00;;;;;;;11.57;8.35;;;;;;;29.21;39.56;100601.66;5007464;28;20045;-61
2021/09/15 08:04:28;;;;;;;9.73;8.07;;;;;;;29.33;40.12;100599.13;5009814;28;20385;-61
2021/09/15 08:06:55;;;;;;;12.07;7.97;;;;;;;29.58;39.62;100590.28;5038821;28;20048;-61
2021/09/15 08:09:22;;;;;;;12.10;7.35;;;;;;;28.06;42.42;100593.97;5036795;28;20085;-61
2021/09/15 08:11:50;;;;;;;9.57;8.43;;;;;;;29.16;40.16;100587.91;5038487;28;20144;-61
2021/09/15 08:14:17;;;;;;;11.05;7.80;;;;;;;30.26;38.47;100588.66;5033764;28;20071;-61
2021/09/15 08:16:44;;;;;;;17.38;7.88;;;;;;;30.90;37.40;100596.69;5038369;28;20081;-62
2021/09/15 08:19:11;;;;;;;10.88;8.98;;;;;;;30.71;37.69;100591.22;5038177;28;20141;-61
2021/09/15 08:21:40;;;;;;;13.15;7.72;;;;;;;29.50;38.75;100581.31;5036986;28;20145;-62
2021/09/15 08:24:08;;;;;;;16.15;8.30;;;;;;;29.75;38.83;100589.56;5032146;28;20124;-66
2021/09/15 08:26:35;;;;;;;11.45;7.35;;;;;;;29.12;40.36;100586.66;5027622;28;20100;-62
2021/09/15 08:29:02;;;;;;;13.32;8.20;;;;;;;28.30;42.26;100582.53;5027069;28;20105;-63
2021/09/15 08:31:29;;;;;;;12.05;9.85;;;;;;;27.78;43.14;100578.69;5036983;28;20080;-65
2021/09/15 08:33:56;;;;;;;22.05;18.90;;;;;;;28.48;41.82;100573.81;5023595;28;20049;-63
2021/09/15 08:36:24;;;;;;;11.68;8.48;;;;;;;29.99;38.90;100576.25;5017492;28;20134;-63
2021/09/15 08:38:51;;;;;;;12.77;8.55;;;;;;;27.66;43.50;100583.84;5031159;28;20049;-63
2021/09/15 08:41:19;;;;;;;12.18;8.50;;;;;;;25.97;47.77;100571.44;5043158;28;20081;-63
2021/09/15 08:43:46;;;;;;;19.52;8.95;;;;;;;24.60;52.38;100567.53;5038486;28;20136;-62
2021/09/15 08:46:17;;;;;;;17.25;8.10;;;;;;;24.43;52.99;100567.69;5008394;28;20145;-63
2021/09/15 08:48:45;;;;;;;9.68;8.68;;;;;;;24.12;54.33;100561.53;5004153;28;20133;-66
2021/09/15 08:51:16;;;;;;;11.70;7.90;;;;;;;23.91;55.87;100572.94;5034319;28;20491;-65
2021/09/15 08:53:44;;;;;;;13.02;9.75;;;;;;;24.00;55.48;100561.09;5019110;28;20467;-64
2021/09/15 08:56:12;;;;;;;27.65;17.40;;;;;;;23.74;56.96;100562.28;5007981;28;20081;-64
2021/09/15 08:58:39;;;;;;;15.18;9.07;;;;;;;23.90;56.68;100566.72;5049443;23;20155;-64
2021/09/15 09:01:18;;;;;;;12.60;7.53;;;;;;;23.90;56.96;100558.66;5007768;28;20105;-64
2021/09/15 09:03:51;;;;;;;11.85;8.13;;;;;;;24.07;56.15;100556.69;4976269;28;20149;-65
2021/09/15 09:06:21;;;;;;;11.90;8.18;;;;;;;24.19;56.27;100549.88;5017599;28;20463;-65
2021/09/15 09:08:53;;;;;;;10.82;8.48;;;;;;;23.83;57.65;100544.25;5010453;28;20132;-64
2021/09/15 09:11:25;;;;;;;15.23;7.75;;;;;;;24.18;56.61;100547.34;5008072;28;20084;-65
2021/09/15 09:14:00;;;;;;;12.13;8.30;;;;;;;23.96;57.04;100547.19;5001865;28;20054;-64
2021/09/15 09:16:43;;;;;;;12.85;8.45;;;;;;;23.95;57.39;100540.13;5003251;28;20057;-65
2021/09/15 09:19:12;;;;;;;13.00;8.00;;;;;;;24.61;55.62;100536.91;5009892;28;20061;-62
2021/09/15 09:21:42;;;;;;;19.52;8.02;;;;;;;24.94;54.41;100545.44;4999952;28;20096;-71
2021/09/15 09:24:10;;;;;;;12.05;7.63;;;;;;;24.75;55.40;100536.91;4971975;28;20125;-66
2021/09/15 09:26:52;;;;;;;15.23;7.78;;;;;;;24.99;53.68;100540.34;5008919;28;20046;-66
2021/09/15 09:29:22;;;;;;;10.60;7.00;;;;;;;25.29;53.68;100540.34;5003011;28;20627;-67
2021/09/15 09:31:56;;;;;;;10.43;7.10;;;;;;;25.59;51.86;100539.28;4991297;28;20046;-68
2021/09/15 09:34:24;;;;;;;12.18;7.30;;;;;;;25.56;52.17;100539.63;4985060;28;20133;-66
2021/09/15 09:36:58;;;;;;;11.10;7.05;;;;;;;25.35;52.92;100542.28;4985296;28;20054;-67
2021/09/15 09:39:39;;;;;;;10.30;7.43;;;;;;;25.17;53.83;100537.28;5001836;28;20142;-68
2021/09/15 09:42:21;;;;;;;9.50;7.60;;;;;;;24.96;54.60;100538.03;4997681;28;20157;-66
2021/09/15 09:45:12;;;;;;;10.98;6.78;;;;;;;24.47;55.32;100536.69;5004205;28;20124;-67
2021/09/15 09:47:40;;;;;;;12.98;7.20;;;;;;;24.41;55.50;100528.53;4981784;28;20133;-67
2021/09/15 09:50:18;;;;;;;11.52;6.82;;;;;;;24.35;55.91;100531.91;4992877;28;20446;-67
2021/09/15 09:53:02;;;;;;;12.02;7.57;;;;;;;24.23;56.65;100536.91;5008124;28;20177;-67
2021/09/15 09:55:32;;;;;;;12.27;6.77;;;;;;;24.37;56.17;100521.84;5006667;28;20041;-67
2021/09/15 09:58:01;;;;;;;11.10;7.20;;;;;;;24.61;56.29;100526.97;4991365;28;20050;-67
2021/09/15 10:00:30;;;;;;;15.50;7.65;;;;;;;24.81;55.55;100526.41;5008318;28;20523;-68
2021/09/15 10:02:58;;;;;;;12.10;7.10;;;;;;;24.71;55.55;100522.13;5010294;28;20088;-66
2021/09/15 10:05:26;;;;;;;7.95;6.50;;;;;;;24.61;55.92;100526.97;5004408;28;20178;-67
2021/09/15 10:07:53;;;;;;;11.30;7.40;;;;;;;24.55;56.38;100519.66;5006967;28;20066;-67
2021/09/15 10:10:21;;;;;;;10.63;7.75;;;;;;;24.59;55.99;100520.13;5005134;28;20155;-67
2021/09/15 10:12:55;;;;;;;10.23;7.40;;;;;;;24.91;55.34;100511.66;5009195;28;20048;-67
2021/09/15 10:15:23;;;;;;;9.18;7.25;;;;;;;24.91;55.38;100505.44;5011354;28;20137;-67
2021/09/15 10:17:52;;;;;;;19.92;7.80;;;;;;;25.02;55.16;100497.72;4970712;28;20145;-67
2021/09/15 10:20:28;;;;;;;11.43;6.80;;;;;;;25.25;54.53;100510.25;5006562;28;20136;-67
2021/09/15 10:22:56;;;;;;;10.27;6.63;;;;;;;25.00;54.79;100494.38;4977194;28;20201;-69
2021/09/15 10:25:39;;;;;;;10.13;6.65;;;;;;;25.38;54.60;100498.81;5002716;28;20217;-67
2021/09/15 10:28:08;;;;;;;10.10;6.53;;;;;;;25.89;52.63;100501.41;4985000;28;20132;-67
2021/09/15 10:30:42;;;;;;;12.05;6.05;;;;;;;25.69;53.47;100495.81;5006173;28;20129;-68
2021/09/15 10:33:37;;;;;;;9.73;6.65;;;;;;;25.99;52.24;100492.00;5007482;28;20100;-68
2021/09/15 10:36:13;;;;;;;10.45;6.22;;;;;;;26.01;52.03;100491.78;5004403;28;20120;-69
2021/09/15 10:38:55;;;;;;;10.63;6.63;;;;;;;25.97;51.81;100493.19;4998569;28;20042;-68
2021/09/15 10:41:42;;;;;;;8.38;6.38;;;;;;;25.75;52.72;100479.69;5005754;28;20469;-68
2021/09/15 10:44:13;;;;;;;8.48;6.15;;;;;;;25.20;54.25;100475.78;5005216;28;20053;-67
2021/09/15 10:46:43;;;;;;;10.23;6.53;;;;;;;25.14;55.18;100475.72;5008739;28;20141;-68
2021/09/15 10:49:18;;;;;;;8.35;6.75;;;;;;;25.20;54.62;100470.41;4987805;28;20053;-68
2021/09/15 10:51:45;;;;;;;;;;;;;;;25.32;54.92;100469.94;5018678;28;20136;-68
2021/09/15 10:54:55;;;;;;;11.07;6.78;;;;;;;25.10;54.95;100458.28;4988745;28;19921;-68
2021/09/15 10:57:33;;;;;;;10.75;6.85;;;;;;;24.47;56.87;100464.03;4992512;28;20088;-67
2021/09/15 11:00:21;;;;;;;7.20;6.18;;;;;;;24.40;57.42;100457.72;5005466;28;20686;-67
2021/09/15 11:02:49;;;;;;;9.77;6.72;;;;;;;24.12;58.55;100452.09;5002883;28;20050;-68
2021/09/15 11:05:25;;;;;;;9.52;6.13;;;;;;;24.22;58.61;100449.97;4987023;28;20062;-68
2021/09/15 11:07:53;;;;;;;10.02;6.38;;;;;;;24.32;58.39;100448.88;5012801;28;20084;-68
2021/09/15 11:10:33;;;;;;;8.50;5.85;;;;;;;24.41;58.13;100445.97;4984494;28;20124;-67
2021/09/15 11:13:11;;;;;;;12.52;6.43;;;;;;;24.30;58.54;100440.16;4989972;28;20077;-69
2021/09/15 11:15:46;;;;;;;35.63;6.85;;;;;;;24.58;58.14;100443.91;4993139;28;20046;-69
2021/09/15 11:18:21;;;;;;;10.85;6.15;;;;;;;24.86;56.47;100448.63;4992446;28;20141;-67
2021/09/15 11:21:02;;;;;;;7.53;6.05;;;;;;;24.84;56.18;100442.59;5004538;28;20050;-67
2021/09/15 11:23:30;;;;;;;8.30;6.38;;;;;;;24.79;56.12;100442.31;4992671;28;20062;-67
2021/09/15 11:25:59;;;;;;;10.65;6.55;;;;;;;25.09;55.77;100446.66;5003539;28;20054;-68